Saint Onge, South Dakota
Current Conditions -  °F | °C
As of 7:55 AM on Sunday 21 Dec 2014 (Local Time) from KSPF Reporting Station
Clear Clear  
Wind Chill: 34°   Ceiling: Unl
Heat Index: 34°   Visibility: 10mi
Dew Point: 19°   Wind: 0mph
Humidity: 56%   Direction: NA
Pressure: 29.49"   Gusts: NA
Location:  44.55°N, 103.72°W
Report Text: KSPF 211455Z AUTO 00000KT 10SM CLR 01/M07 A2949 RMK AO2
Loading
Personal Weather Stations






























Interactive Weather Map New forecast layout! Learn more

10-Day Weather Forecast

Advertisements
Track Severe Weather on mobile